sensor_id;sensor_type;location;lat;lon;timestamp;pressure;altitude;pressure_sealevel;temperature;humidity
55317;BME280;41178;48.956;8.130;2023-03-22T00:01:49;99522.25;;;12.16;47.95
55317;BME280;41178;48.956;8.130;2023-03-22T00:06:53;99529.03;;;12.05;47.11
55317;BME280;41178;48.956;8.130;2023-03-22T00:11:55;99491.59;;;13.25;46.09
55317;BME280;41178;48.956;8.130;2023-03-22T00:16:57;99478.72;;;14.19;44.45
55317;BME280;41178;48.956;8.130;2023-03-22T00:21:58;99547.56;;;12.62;46.81
55317;BME280;41178;48.956;8.130;2023-03-22T00:27:01;99525.13;;;11.66;48.57
55317;BME280;41178;48.956;8.130;2023-03-22T00:32:03;99484.63;;;12.71;46.87
55317;BME280;41178;48.956;8.130;2023-03-22T00:37:05;99467.66;;;13.04;46.25
55317;BME280;41178;48.956;8.130;2023-03-22T00:42:08;99488.94;;;12.99;45.21
55317;BME280;41178;48.956;8.130;2023-03-22T00:47:10;99517.06;;;12.89;45.81
55317;BME280;41178;48.956;8.130;2023-03-22T00:52:12;99511.69;;;13.09;45.73
55317;BME280;41178;48.956;8.130;2023-03-22T00:57:14;99470.94;;;13.98;43.51
55317;BME280;41178;48.956;8.130;2023-03-22T01:02:16;99464.44;;;14.19;42.84
55317;BME280;41178;48.956;8.130;2023-03-22T01:07:18;99471.31;;;14.08;43.28
55317;BME280;41178;48.956;8.130;2023-03-22T01:12:22;99504.09;;;13.78;44.38
55317;BME280;41178;48.956;8.130;2023-03-22T01:17:23;99492.03;;;13.22;44.09
55317;BME280;41178;48.956;8.130;2023-03-22T01:22:25;99471.34;;;13.95;44.08
55317;BME280;41178;48.956;8.130;2023-03-22T01:27:27;99490.00;;;12.98;44.58
55317;BME280;41178;48.956;8.130;2023-03-22T01:32:28;99472.09;;;13.70;43.44
55317;BME280;41178;48.956;8.130;2023-03-22T01:37:30;99475.69;;;14.02;43.38
55317;BME280;41178;48.956;8.130;2023-03-22T01:42:33;99473.53;;;13.66;43.99
55317;BME280;41178;48.956;8.130;2023-03-22T01:47:34;99463.25;;;14.01;43.78
55317;BME280;41178;48.956;8.130;2023-03-22T01:52:36;99484.81;;;12.69;45.54
55317;BME280;41178;48.956;8.130;2023-03-22T01:57:40;99443.22;;;12.05;45.77
55317;BME280;41178;48.956;8.130;2023-03-22T02:02:43;99352.03;;;10.39;49.10
55317;BME280;41178;48.956;8.130;2023-03-22T02:07:47;99488.56;;;11.58;47.88
55317;BME280;41178;48.956;8.130;2023-03-22T02:18:04;99500.09;;;11.94;47.51
55317;BME280;41178;48.956;8.130;2023-03-22T02:44:39;99455.59;;;10.66;49.04
55317;BME280;41178;48.956;8.130;2023-03-22T02:55:05;99455.97;;;10.20;50.91
55317;BME280;41178;48.956;8.130;2023-03-22T03:00:12;99472.78;;;10.36;50.82
55317;BME280;41178;48.956;8.130;2023-03-22T03:05:16;99426.63;;;9.90;51.47
55317;BME280;41178;48.956;8.130;2023-03-22T03:10:19;99465.25;;;10.46;51.56
55317;BME280;41178;48.956;8.130;2023-03-22T03:15:21;99473.56;;;10.29;50.60
55317;BME280;41178;48.956;8.130;2023-03-22T03:25:44;99518.78;;;11.11;48.72
55317;BME280;41178;48.956;8.130;2023-03-22T03:30:56;99460.47;;;12.98;45.33
55317;BME280;41178;48.956;8.130;2023-03-22T03:36:02;99471.94;;;13.58;43.67
55317;BME280;41178;48.956;8.130;2023-03-22T03:41:09;99533.94;;;11.95;46.60
55317;BME280;41178;48.956;8.130;2023-03-22T03:46:12;99510.16;;;11.50;46.83
55317;BME280;41178;48.956;8.130;2023-03-22T03:51:15;99489.28;;;10.61;48.93
55317;BME280;41178;48.956;8.130;2023-03-22T03:56:16;99518.09;;;12.07;46.17
55317;BME280;41178;48.956;8.130;2023-03-22T04:01:19;99479.03;;;12.66;45.14
55317;BME280;41178;48.956;8.130;2023-03-22T04:06:21;99521.41;;;12.09;47.31
55317;BME280;41178;48.956;8.130;2023-03-22T04:11:23;99502.84;;;12.07;46.16
55317;BME280;41178;48.956;8.130;2023-03-22T04:16:24;99344.22;;;9.21;50.77
55317;BME280;41178;48.956;8.130;2023-03-22T04:21:26;99501.31;;;10.28;49.98
55317;BME280;41178;48.956;8.130;2023-03-22T04:26:28;99500.94;;;10.31;49.79
55317;BME280;41178;48.956;8.130;2023-03-22T04:31:31;99519.16;;;10.43;50.15
55317;BME280;41178;48.956;8.130;2023-03-22T04:36:35;99491.53;;;9.99;50.75
55317;BME280;41178;48.956;8.130;2023-03-22T04:41:39;99456.91;;;9.46;51.07
55317;BME280;41178;48.956;8.130;2023-03-22T04:46:41;99445.41;;;9.31;51.59
55317;BME280;41178;48.956;8.130;2023-03-22T04:51:44;99469.00;;;10.95;49.57
55317;BME280;41178;48.956;8.130;2023-03-22T04:56:46;99462.84;;;11.64;47.10
55317;BME280;41178;48.956;8.130;2023-03-22T05:01:49;99497.06;;;11.34;47.69
55317;BME280;41178;48.956;8.130;2023-03-22T05:06:51;99502.75;;;9.80;50.06
55317;BME280;41178;48.956;8.130;2023-03-22T05:11:53;99500.69;;;11.48;47.82
55317;BME280;41178;48.956;8.130;2023-03-22T05:16:55;99496.56;;;11.52;47.60
55317;BME280;41178;48.956;8.130;2023-03-22T05:21:57;99512.13;;;11.35;47.34
55317;BME280;41178;48.956;8.130;2023-03-22T05:27:02;99513.47;;;11.52;46.90
55317;BME280;41178;48.956;8.130;2023-03-22T05:32:04;99517.00;;;11.94;46.44
55317;BME280;41178;48.956;8.130;2023-03-22T05:37:06;99549.63;;;11.35;47.49
55317;BME280;41178;48.956;8.130;2023-03-22T05:42:07;99531.50;;;12.07;46.02
55317;BME280;41178;48.956;8.130;2023-03-22T05:47:09;99562.44;;;11.39;47.32
55317;BME280;41178;48.956;8.130;2023-03-22T05:52:11;99552.72;;;10.82;48.36
55317;BME280;41178;48.956;8.130;2023-03-22T05:57:13;99547.69;;;11.22;47.16
55317;BME280;41178;48.956;8.130;2023-03-22T06:02:14;99565.69;;;11.06;47.76
55317;BME280;41178;48.956;8.130;2023-03-22T06:07:17;99552.34;;;11.63;47.03
55317;BME280;41178;48.956;8.130;2023-03-22T06:12:19;99537.88;;;11.64;47.06
55317;BME280;41178;48.956;8.130;2023-03-22T06:17:25;99553.88;;;10.58;48.49
55317;BME280;41178;48.956;8.130;2023-03-22T06:22:26;99551.44;;;12.39;46.22
55317;BME280;41178;48.956;8.130;2023-03-22T06:27:31;99568.88;;;11.45;47.71
55317;BME280;41178;48.956;8.130;2023-03-22T06:32:33;99570.53;;;12.71;46.16
55317;BME280;41178;48.956;8.130;2023-03-22T06:37:34;99551.28;;;12.47;45.74
55317;BME280;41178;48.956;8.130;2023-03-22T06:42:36;99574.22;;;12.63;46.07
55317;BME280;41178;48.956;8.130;2023-03-22T06:47:38;99555.44;;;11.38;47.58
55317;BME280;41178;48.956;8.130;2023-03-22T06:52:40;99578.59;;;12.78;46.13
55317;BME280;41178;48.956;8.130;2023-03-22T06:57:41;99569.41;;;11.62;47.79
55317;BME280;41178;48.956;8.130;2023-03-22T07:02:43;99553.81;;;12.14;47.15
55317;BME280;41178;48.956;8.130;2023-03-22T07:12:46;99573.00;;;12.72;46.73
55317;BME280;41178;48.956;8.130;2023-03-22T07:17:48;99574.09;;;13.11;45.97
55317;BME280;41178;48.956;8.130;2023-03-22T07:22:50;99557.75;;;12.25;46.51
55317;BME280;41178;48.956;8.130;2023-03-22T07:27:51;99552.44;;;11.83;47.46
55317;BME280;41178;48.956;8.130;2023-03-22T07:32:53;99561.88;;;13.02;45.66
55317;BME280;41178;48.956;8.130;2023-03-22T07:37:55;99603.38;;;13.87;44.40
55317;BME280;41178;48.956;8.130;2023-03-22T07:42:57;99592.03;;;13.71;44.43
55317;BME280;41178;48.956;8.130;2023-03-22T07:48:01;99557.94;;;12.91;45.58
55317;BME280;41178;48.956;8.130;2023-03-22T07:53:03;99563.13;;;13.53;45.29
55317;BME280;41178;48.956;8.130;2023-03-22T07:58:05;99585.13;;;14.09;44.80
55317;BME280;41178;48.956;8.130;2023-03-22T08:03:06;99566.38;;;13.89;45.04
55317;BME280;41178;48.956;8.130;2023-03-22T08:08:09;99537.06;;;12.73;47.01
55317;BME280;41178;48.956;8.130;2023-03-22T08:13:11;99518.06;;;13.02;46.13
55317;BME280;41178;48.956;8.130;2023-03-22T08:18:12;99524.28;;;13.29;46.42
55317;BME280;41178;48.956;8.130;2023-03-22T08:23:14;99551.09;;;14.98;43.95
55317;BME280;41178;48.956;8.130;2023-03-22T08:28:16;99500.63;;;14.23;45.24
55317;BME280;41178;48.956;8.130;2023-03-22T08:33:18;99498.97;;;14.22;44.26
55317;BME280;41178;48.956;8.130;2023-03-22T08:38:23;99533.91;;;14.99;43.57
55317;BME280;41178;48.956;8.130;2023-03-22T08:43:25;99482.31;;;13.93;44.39
55317;BME280;41178;48.956;8.130;2023-03-22T08:48:26;99491.63;;;12.92;45.76
55317;BME280;41178;48.956;8.130;2023-03-22T08:53:31;99506.66;;;13.60;45.57
55317;BME280;41178;48.956;8.130;2023-03-22T08:58:32;99483.34;;;13.47;45.69
55317;BME280;41178;48.956;8.130;2023-03-22T09:03:34;99466.66;;;13.83;45.56
55317;BME280;41178;48.956;8.130;2023-03-22T09:08:35;99463.81;;;13.72;46.30
55317;BME280;41178;48.956;8.130;2023-03-22T09:13:38;99446.38;;;13.81;45.93
55317;BME280;41178;48.956;8.130;2023-03-22T09:18:40;99440.47;;;14.11;45.10
55317;BME280;41178;48.956;8.130;2023-03-22T09:23:41;99475.34;;;15.31;43.62
55317;BME280;41178;48.956;8.130;2023-03-22T09:28:48;99451.53;;;15.28;43.80
55317;BME280;41178;48.956;8.130;2023-03-22T09:33:50;99398.00;;;14.95;42.84
55317;BME280;41178;48.956;8.130;2023-03-22T09:38:52;99434.19;;;15.43;43.40
55317;BME280;41178;48.956;8.130;2023-03-22T09:43:56;99387.00;;;14.97;43.55
55317;BME280;41178;48.956;8.130;2023-03-22T09:49:02;99442.31;;;15.92;42.72
55317;BME280;41178;48.956;8.130;2023-03-22T10:10:16;99393.56;;;16.47;42.57
55317;BME280;41178;48.956;8.130;2023-03-22T10:15:25;99328.25;;;16.86;41.44
55317;BME280;41178;48.956;8.130;2023-03-22T10:21:04;99298.88;;;16.06;42.18
55317;BME280;41178;48.956;8.130;2023-03-22T10:26:08;99352.47;;;17.45;40.80
55317;BME280;41178;48.956;8.130;2023-03-22T10:31:16;99260.50;;;16.75;40.94
55317;BME280;41178;48.956;8.130;2023-03-22T10:36:20;99247.75;;;16.35;41.16
55317;BME280;41178;48.956;8.130;2023-03-22T10:41:24;99320.16;;;15.73;42.78
55317;BME280;41178;48.956;8.130;2023-03-22T10:46:38;99250.56;;;17.05;41.07
55317;BME280;41178;48.956;8.130;2023-03-22T10:51:49;99278.59;;;17.73;40.26
55317;BME280;41178;48.956;8.130;2023-03-22T10:56:51;99226.03;;;16.42;41.45
55317;BME280;41178;48.956;8.130;2023-03-22T11:06:33;99304.69;;;14.57;44.63
55317;BME280;41178;48.956;8.130;2023-03-22T11:11:58;99286.94;;;15.72;43.59
55317;BME280;41178;48.956;8.130;2023-03-22T11:17:07;99279.13;;;17.12;41.77
55317;BME280;41178;48.956;8.130;2023-03-22T11:22:37;99217.16;;;15.76;42.88
55317;BME280;41178;48.956;8.130;2023-03-22T11:27:49;99250.31;;;16.42;42.88
55317;BME280;41178;48.956;8.130;2023-03-22T11:38:24;99234.75;;;16.73;41.50
55317;BME280;41178;48.956;8.130;2023-03-22T11:43:37;99203.94;;;16.21;41.66
55317;BME280;41178;48.956;8.130;2023-03-22T11:48:41;99207.00;;;16.37;41.04
55317;BME280;41178;48.956;8.130;2023-03-22T11:53:46;99195.13;;;16.14;41.63
55317;BME280;41178;48.956;8.130;2023-03-22T11:59:04;99191.03;;;16.12;40.81
55317;BME280;41178;48.956;8.130;2023-03-22T12:04:12;99207.41;;;16.69;40.50
55317;BME280;41178;48.956;8.130;2023-03-22T12:09:37;99198.88;;;16.49;40.26
55317;BME280;41178;48.956;8.130;2023-03-22T12:15:00;99189.59;;;16.85;40.20
55317;BME280;41178;48.956;8.130;2023-03-22T12:25:21;99169.56;;;16.81;41.10
55317;BME280;41178;48.956;8.130;2023-03-22T12:30:38;99160.03;;;17.53;39.99
55317;BME280;41178;48.956;8.130;2023-03-22T12:35:45;99128.16;;;17.38;39.65
55317;BME280;41178;48.956;8.130;2023-03-22T12:40:48;99156.00;;;17.89;39.76
55317;BME280;41178;48.956;8.130;2023-03-22T12:45:57;99105.69;;;16.92;40.31
55317;BME280;41178;48.956;8.130;2023-03-22T12:51:03;99121.97;;;17.94;39.42
55317;BME280;41178;48.956;8.130;2023-03-22T12:56:05;99078.06;;;17.69;39.57
55317;BME280;41178;48.956;8.130;2023-03-22T13:06:33;99072.47;;;18.92;38.07
55317;BME280;41178;48.956;8.130;2023-03-22T13:11:35;99011.56;;;17.34;39.66
55317;BME280;41178;48.956;8.130;2023-03-22T13:16:49;99036.03;;;16.94;39.90
55317;BME280;41178;48.956;8.130;2023-03-22T13:22:15;98978.72;;;17.87;38.74
55317;BME280;41178;48.956;8.130;2023-03-22T13:27:18;98951.69;;;16.75;38.20
55317;BME280;41178;48.956;8.130;2023-03-22T13:32:27;98957.34;;;18.67;36.88
55317;BME280;41178;48.956;8.130;2023-03-22T13:37:44;98953.19;;;17.39;36.87
55317;BME280;41178;48.956;8.130;2023-03-22T13:42:47;98978.72;;;18.63;36.71
55317;BME280;41178;48.956;8.130;2023-03-22T13:48:27;98968.16;;;17.85;35.99
55317;BME280;41178;48.956;8.130;2023-03-22T13:53:33;98924.66;;;18.46;35.99
55317;BME280;41178;48.956;8.130;2023-03-22T13:58:52;98947.63;;;18.71;35.20
55317;BME280;41178;48.956;8.130;2023-03-22T14:03:57;98933.59;;;17.09;35.53
55317;BME280;41178;48.956;8.130;2023-03-22T14:09:10;98962.72;;;18.07;34.65
55317;BME280;41178;48.956;8.130;2023-03-22T14:14:18;98928.22;;;18.84;34.77
55317;BME280;41178;48.956;8.130;2023-03-22T14:19:23;98933.38;;;18.54;34.26
55317;BME280;41178;48.956;8.130;2023-03-22T14:24:29;98885.81;;;18.31;35.08
55317;BME280;41178;48.956;8.130;2023-03-22T14:29:44;98965.13;;;17.82;35.96
55317;BME280;41178;48.956;8.130;2023-03-22T14:34:47;98950.19;;;17.57;36.63
55317;BME280;41178;48.956;8.130;2023-03-22T14:39:50;98923.31;;;17.28;36.50
55317;BME280;41178;48.956;8.130;2023-03-22T14:44:59;98937.91;;;18.16;36.36
55317;BME280;41178;48.956;8.130;2023-03-22T14:50:06;98938.97;;;17.65;36.73
55317;BME280;41178;48.956;8.130;2023-03-22T14:55:20;98888.94;;;18.87;35.24
55317;BME280;41178;48.956;8.130;2023-03-22T15:00:25;98888.31;;;18.75;34.96
55317;BME280;41178;48.956;8.130;2023-03-22T15:05:32;98892.97;;;18.47;35.68
55317;BME280;41178;48.956;8.130;2023-03-22T15:10:35;98913.75;;;18.09;35.62
55317;BME280;41178;48.956;8.130;2023-03-22T15:15:38;98917.16;;;17.55;36.08
55317;BME280;41178;48.956;8.130;2023-03-22T15:20:44;98857.56;;;18.26;35.01
55317;BME280;41178;48.956;8.130;2023-03-22T15:25:50;98860.75;;;18.51;35.94
55317;BME280;41178;48.956;8.130;2023-03-22T15:30:58;98903.00;;;18.19;35.19
55317;BME280;41178;48.956;8.130;2023-03-22T15:36:02;98847.03;;;19.00;34.43
55317;BME280;41178;48.956;8.130;2023-03-22T15:41:17;98816.41;;;20.50;34.12
55317;BME280;41178;48.956;8.130;2023-03-22T15:46:19;98833.38;;;18.84;34.59
55317;BME280;41178;48.956;8.130;2023-03-22T15:51:26;98795.78;;;18.98;35.09
55317;BME280;41178;48.956;8.130;2023-03-22T15:56:31;98807.03;;;18.32;35.71
55317;BME280;41178;48.956;8.130;2023-03-22T16:01:41;98817.94;;;18.90;35.47
55317;BME280;41178;48.956;8.130;2023-03-22T16:06:43;98775.41;;;20.05;34.37
55317;BME280;41178;48.956;8.130;2023-03-22T16:11:44;98810.13;;;18.94;35.70
55317;BME280;41178;48.956;8.130;2023-03-22T16:16:46;98781.38;;;20.48;34.40
55317;BME280;41178;48.956;8.130;2023-03-22T16:21:47;98813.28;;;18.86;35.90
55317;BME280;41178;48.956;8.130;2023-03-22T16:26:48;98823.41;;;17.39;36.08
55317;BME280;41178;48.956;8.130;2023-03-22T16:31:48;98858.66;;;18.58;35.80
55317;BME280;41178;48.956;8.130;2023-03-22T16:36:49;98848.13;;;17.25;36.97
55317;BME280;41178;48.956;8.130;2023-03-22T16:41:50;98864.97;;;18.69;36.18
55317;BME280;41178;48.956;8.130;2023-03-22T16:46:50;98852.00;;;17.79;36.72
55317;BME280;41178;48.956;8.130;2023-03-22T16:51:51;98785.47;;;20.00;35.18
55317;BME280;41178;48.956;8.130;2023-03-22T16:56:51;98809.84;;;18.95;36.39
55317;BME280;41178;48.956;8.130;2023-03-22T17:01:52;98855.16;;;17.98;37.59
55317;BME280;41178;48.956;8.130;2023-03-22T17:06:52;98826.31;;;18.83;36.70
55317;BME280;41178;48.956;8.130;2023-03-22T17:11:53;98776.22;;;19.90;35.17
55317;BME280;41178;48.956;8.130;2023-03-22T17:16:54;98822.06;;;18.23;36.45
55317;BME280;41178;48.956;8.130;2023-03-22T17:21:54;98841.63;;;17.48;37.14
55317;BME280;41178;48.956;8.130;2023-03-22T17:26:55;98878.72;;;17.09;37.21
55317;BME280;41178;48.956;8.130;2023-03-22T17:31:58;98899.13;;;17.39;37.12
55317;BME280;41178;48.956;8.130;2023-03-22T17:36:59;98922.75;;;17.26;37.10
55317;BME280;41178;48.956;8.130;2023-03-22T17:42:01;98896.91;;;17.80;36.83
55317;BME280;41178;48.956;8.130;2023-03-22T17:47:01;98923.94;;;16.96;37.35
55317;BME280;41178;48.956;8.130;2023-03-22T17:52:02;98895.38;;;16.33;37.55
55317;BME280;41178;48.956;8.130;2023-03-22T17:57:02;98912.88;;;16.30;38.21
55317;BME280;41178;48.956;8.130;2023-03-22T18:02:03;98886.09;;;17.58;37.17
55317;BME280;41178;48.956;8.130;2023-03-22T18:07:04;98870.75;;;18.45;36.54
55317;BME280;41178;48.956;8.130;2023-03-22T18:12:04;98856.03;;;18.68;36.28
55317;BME280;41178;48.956;8.130;2023-03-22T18:17:05;98856.13;;;19.36;35.95
55317;BME280;41178;48.956;8.130;2023-03-22T18:22:06;98840.44;;;18.48;36.84
55317;BME280;41178;48.956;8.130;2023-03-22T18:27:06;98829.53;;;18.80;36.79
55317;BME280;41178;48.956;8.130;2023-03-22T18:32:07;98881.78;;;19.08;36.46
55317;BME280;41178;48.956;8.130;2023-03-22T18:37:07;98869.00;;;18.01;37.03
55317;BME280;41178;48.956;8.130;2023-03-22T18:42:09;98905.03;;;17.80;37.66
55317;BME280;41178;48.956;8.130;2023-03-22T18:47:09;98887.44;;;17.77;37.50
55317;BME280;41178;48.956;8.130;2023-03-22T18:52:15;98926.84;;;17.51;38.07
55317;BME280;41178;48.956;8.130;2023-03-22T18:57:16;98877.41;;;17.78;37.40
55317;BME280;41178;48.956;8.130;2023-03-22T19:02:16;98896.56;;;16.93;38.11
55317;BME280;41178;48.956;8.130;2023-03-22T19:07:18;98883.44;;;17.85;37.16
55317;BME280;41178;48.956;8.130;2023-03-22T19:12:18;98893.50;;;17.23;37.73
55317;BME280;41178;48.956;8.130;2023-03-22T19:17:19;98916.75;;;17.41;37.83
55317;BME280;41178;48.956;8.130;2023-03-22T19:22:19;98876.03;;;16.75;38.03
55317;BME280;41178;48.956;8.130;2023-03-22T19:27:20;98860.97;;;18.12;36.74
55317;BME280;41178;48.956;8.130;2023-03-22T19:32:21;98886.38;;;17.61;37.13
55317;BME280;41178;48.956;8.130;2023-03-22T19:37:22;98894.81;;;18.41;36.70
55317;BME280;41178;48.956;8.130;2023-03-22T19:42:23;98928.31;;;17.81;37.17
55317;BME280;41178;48.956;8.130;2023-03-22T19:47:23;98899.41;;;17.20;36.98
55317;BME280;41178;48.956;8.130;2023-03-22T19:52:24;98913.41;;;17.78;36.51
55317;BME280;41178;48.956;8.130;2023-03-22T19:57:27;98917.13;;;17.50;36.51
55317;BME280;41178;48.956;8.130;2023-03-22T20:02:28;98945.09;;;17.61;36.89
55317;BME280;41178;48.956;8.130;2023-03-22T20:07:29;98924.16;;;17.12;36.53
55317;BME280;41178;48.956;8.130;2023-03-22T20:12:30;98943.19;;;15.92;38.11
55317;BME280;41178;48.956;8.130;2023-03-22T20:17:31;98942.13;;;15.28;38.71
55317;BME280;41178;48.956;8.130;2023-03-22T20:22:38;98987.66;;;15.77;38.39
55317;BME280;41178;48.956;8.130;2023-03-22T20:27:39;98979.63;;;15.94;37.99
55317;BME280;41178;48.956;8.130;2023-03-22T20:32:40;98988.41;;;15.61;42.22
55317;BME280;41178;48.956;8.130;2023-03-22T20:37:41;98957.44;;;15.51;42.67
55317;BME280;41178;48.956;8.130;2023-03-22T20:42:41;98917.88;;;16.89;41.27
55317;BME280;41178;48.956;8.130;2023-03-22T20:47:42;98923.16;;;16.16;41.48
55317;BME280;41178;48.956;8.130;2023-03-22T20:52:42;98926.88;;;16.78;41.26
55317;BME280;41178;48.956;8.130;2023-03-22T20:57:46;98951.44;;;16.76;41.55
55317;BME280;41178;48.956;8.130;2023-03-22T21:02:47;98951.91;;;16.90;41.34
55317;BME280;41178;48.956;8.130;2023-03-22T21:07:47;98889.69;;;18.13;39.72
55317;BME280;41178;48.956;8.130;2023-03-22T21:12:48;98917.38;;;16.92;40.78
55317;BME280;41178;48.956;8.130;2023-03-22T21:17:49;98939.19;;;17.42;40.79
55317;BME280;41178;48.956;8.130;2023-03-22T21:22:49;98943.31;;;14.97;44.01
55317;BME280;41178;48.956;8.130;2023-03-22T21:27:50;98994.41;;;15.63;43.71
55317;BME280;41178;48.956;8.130;2023-03-22T21:32:53;98906.19;;;13.73;45.38
55317;BME280;41178;48.956;8.130;2023-03-22T21:37:53;98997.09;;;15.16;43.38
55317;BME280;41178;48.956;8.130;2023-03-22T21:42:57;98958.81;;;16.18;42.03
55317;BME280;41178;48.956;8.130;2023-03-22T21:47:57;98950.41;;;16.03;41.81
55317;BME280;41178;48.956;8.130;2023-03-22T21:52:58;98950.13;;;13.97;43.66
55317;BME280;41178;48.956;8.130;2023-03-22T21:57:59;98985.28;;;13.83;43.62
55317;BME280;41178;48.956;8.130;2023-03-22T22:02:59;98960.28;;;13.64;43.26
55317;BME280;41178;48.956;8.130;2023-03-22T22:08:01;99020.13;;;14.27;43.33
55317;BME280;41178;48.956;8.130;2023-03-22T22:13:01;99005.22;;;14.73;43.03
55317;BME280;41178;48.956;8.130;2023-03-22T22:18:02;99007.72;;;14.87;43.10
55317;BME280;41178;48.956;8.130;2023-03-22T22:23:06;98999.41;;;13.97;42.95
55317;BME280;41178;48.956;8.130;2023-03-22T22:28:07;99003.84;;;14.22;42.91
55317;BME280;41178;48.956;8.130;2023-03-22T22:33:07;99030.75;;;14.83;42.81
55317;BME280;41178;48.956;8.130;2023-03-22T22:38:09;99035.97;;;14.35;44.04
55317;BME280;41178;48.956;8.130;2023-03-22T22:43:10;99020.63;;;14.54;44.09
55317;BME280;41178;48.956;8.130;2023-03-22T22:48:10;99027.53;;;14.32;43.60
55317;BME280;41178;48.956;8.130;2023-03-22T22:53:11;99016.94;;;14.49;43.63
55317;BME280;41178;48.956;8.130;2023-03-22T22:58:12;98984.53;;;15.21;42.56
55317;BME280;41178;48.956;8.130;2023-03-22T23:03:12;99006.56;;;14.64;42.88
55317;BME280;41178;48.956;8.130;2023-03-22T23:08:13;99002.91;;;14.89;41.97
55317;BME280;41178;48.956;8.130;2023-03-22T23:13:13;98977.53;;;15.32;41.92
55317;BME280;41178;48.956;8.130;2023-03-22T23:18:15;98985.22;;;15.05;42.78
55317;BME280;41178;48.956;8.130;2023-03-22T23:23:17;99037.78;;;14.23;43.94
55317;BME280;41178;48.956;8.130;2023-03-22T23:28:19;98965.25;;;15.88;41.47
55317;BME280;41178;48.956;8.130;2023-03-22T23:33:20;98964.09;;;16.13;41.38
55317;BME280;41178;48.956;8.130;2023-03-22T23:38:21;99007.31;;;13.92;44.10
55317;BME280;41178;48.956;8.130;2023-03-22T23:43:21;98988.41;;;14.48;43.03
55317;BME280;41178;48.956;8.130;2023-03-22T23:48:22;98946.41;;;13.24;45.16
55317;BME280;41178;48.956;8.130;2023-03-22T23:53:24;98999.34;;;14.34;43.90
55317;BME280;41178;48.956;8.130;2023-03-22T23:58:26;98938.84;;;15.03;42.96
